Time;durP1;ratioP1;P1;durP2;ratioP2;P2;SDS_P1;SDS_P2;PMS_P1;PMS_P2;Temp;Humidity;BMP_temperature;BMP_pressure;BME280_temperature;BME280_humidity;BME280_pressure;Samples;Min_cycle;Max_cycle;Signal;HPM_P1;HPM_P2
2023/03/25 00:01:37;;;;;;;;;;;17.50;66.70;;;;;;5037263;28;776;-71
2023/03/25 00:04:05;;;;;;;;;;;17.50;66.70;;;;;;5040065;28;1902;-71
2023/03/25 00:06:33;;;;;;;;;;;17.50;66.70;;;;;;5037643;28;923;-71
2023/03/25 00:08:58;;;;;;;;;;;17.50;66.70;;;;;;5070251;28;894;-71
2023/03/25 00:11:24;;;;;;;;;;;17.50;66.70;;;;;;5069512;28;863;-71
2023/03/25 00:13:49;;;;;;;;;;;17.50;66.70;;;;;;5037188;28;1388;-72
2023/03/25 00:16:15;;;;;;;;;;;17.50;66.70;;;;;;5038048;28;899;-71
2023/03/25 00:18:40;;;;;;;;;;;17.50;66.70;;;;;;5040167;28;844;-72
2023/03/25 00:21:09;;;;;;;;;;;17.50;66.70;;;;;;5036503;28;883;-71
2023/03/25 00:23:35;;;;;;;;;;;17.50;66.70;;;;;;5035287;28;1971;-72
2023/03/25 00:26:00;;;;;;;;;;;17.40;66.70;;;;;;5034355;28;845;-71
2023/03/25 00:28:27;;;;;;;;;;;17.40;66.70;;;;;;5039885;28;1414;-72
2023/03/25 00:30:52;;;;;;;;;;;17.50;66.80;;;;;;5070167;28;878;-71
2023/03/25 00:33:18;;;;;;;;;;;17.50;66.80;;;;;;5037976;28;1246;-71
2023/03/25 00:35:43;;;;;;;;;;;17.40;66.70;;;;;;5037596;28;868;-71
2023/03/25 00:38:09;;;;;;;;;;;17.40;66.70;;;;;;5071593;28;1399;-71
2023/03/25 00:40:35;;;;;;;;;;;17.40;66.70;;;;;;5039227;28;923;-71
2023/03/25 00:43:00;;;;;;;;;;;17.40;66.70;;;;;;5040364;28;1973;-71
2023/03/25 00:45:26;;;;;;;;;;;17.40;66.80;;;;;;5071385;28;1331;-70
2023/03/25 00:47:52;;;;;;;;;;;17.50;66.80;;;;;;5039022;28;928;-70
2023/03/25 00:50:17;;;;;;;;;;;17.40;66.80;;;;;;5041168;28;1370;-70
2023/03/25 00:52:43;;;;;;;;;;;17.40;66.80;;;;;;5036729;28;921;-71
2023/03/25 00:55:08;;;;;;;;;;;17.40;66.80;;;;;;5040304;28;1318;-70
2023/03/25 00:57:34;;;;;;;;;;;17.40;66.80;;;;;;5039345;28;865;-71
2023/03/25 01:00:00;;;;;;;;;;;17.40;66.80;;;;;;5070370;28;875;-72
2023/03/25 01:02:25;;;;;;;;;;;17.40;66.80;;;;;;5039618;28;1902;-72
2023/03/25 01:04:51;;;;;;;;;;;17.40;66.90;;;;;;5024489;28;1303;-71
2023/03/25 01:07:17;;;;;;;;;;;17.40;66.80;;;;;;5040626;28;888;-69
2023/03/25 01:09:45;;;;;;;;;;;17.40;66.80;;;;;;5044106;28;923;-69
2023/03/25 01:12:10;;;;;;;;;;;17.50;66.90;;;;;;5039668;28;879;-69
2023/03/25 01:14:36;;;;;;;;;;;17.40;66.80;;;;;;5073082;28;1377;-70
2023/03/25 01:17:01;;;;;;;;;;;17.40;66.90;;;;;;5041882;28;750;-70
2023/03/25 01:19:27;;;;;;;;;;;17.40;66.90;;;;;;5041140;28;935;-71
2023/03/25 01:21:52;;;;;;;;;;;17.40;66.90;;;;;;5043321;28;868;-71
2023/03/25 01:24:18;;;;;;;;;;;17.40;66.90;;;;;;5041481;28;1913;-71
2023/03/25 01:26:44;;;;;;;;;;;17.40;66.90;;;;;;5040773;28;994;-70
2023/03/25 01:29:10;;;;;;;;;;;17.40;66.90;;;;;;5040061;28;825;-70
2023/03/25 01:31:36;;;;;;;;;;;17.40;66.90;;;;;;5058763;28;1248;-70
2023/03/25 01:34:01;;;;;;;;;;;17.40;66.90;;;;;;5039921;28;1338;-69
2023/03/25 01:36:28;;;;;;;;;;;17.40;66.90;;;;;;5039872;28;903;-70
2023/03/25 01:38:54;;;;;;;;;;;17.40;66.90;;;;;;5041309;28;1282;-71
2023/03/25 01:41:20;;;;;;;;;;;17.40;66.90;;;;;;5041869;28;880;-71
2023/03/25 01:44:04;;;;;;;;;;;17.40;67.00;;;;;;5038396;28;1906;-70
2023/03/25 01:46:29;;;;;;;;;;;17.40;67.00;;;;;;5041168;28;864;-70
2023/03/25 01:48:55;;;;;;;;;;;17.40;66.90;;;;;;5041319;28;935;-70
2023/03/25 01:51:21;;;;;;;;;;;17.40;67.00;;;;;;5039600;28;816;-71
2023/03/25 01:53:47;;;;;;;;;;;17.40;67.00;;;;;;5050060;28;1265;-71
2023/03/25 01:56:13;;;;;;;;;;;17.40;67.00;;;;;;5039956;28;1054;-71
2023/03/25 01:58:39;;;;;;;;;;;17.40;67.00;;;;;;5042324;28;930;-71
2023/03/25 02:01:05;;;;;;;;;;;17.40;67.00;;;;;;5074021;28;900;-70
2023/03/25 02:03:35;;;;;;;;;;;17.40;67.00;;;;;;5074019;28;1949;-71
2023/03/25 02:06:02;;;;;;;;;;;17.40;67.00;;;;;;5037464;28;923;-70
2023/03/25 02:08:31;;;;;;;;;;;17.40;67.00;;;;;;5036601;28;1779;-71
2023/03/25 02:10:57;;;;;;;;;;;17.40;67.00;;;;;;5029231;28;1553;-70
2023/03/25 02:13:22;;;;;;;;;;;17.40;67.00;;;;;;5039256;28;1269;-69
2023/03/25 02:15:51;;;;;;;;;;;17.40;67.00;;;;;;5041018;28;871;-69
2023/03/25 02:18:23;;;;;;;;;;;17.40;67.00;;;;;;5039689;28;1026;-72
2023/03/25 02:21:12;;;;;;;;;;;17.40;67.00;;;;;;5041226;28;860;-70
2023/03/25 02:23:44;;;;;;;;;;;17.40;67.00;;;;;;5074209;28;1969;-69
2023/03/25 02:26:31;;;;;;;;;;;17.40;67.00;;;;;;5039397;28;828;-69
2023/03/25 02:29:00;;;;;;;;;;;17.40;67.00;;;;;;5040129;28;855;-69
2023/03/25 02:31:27;;;;;;;;;;;17.40;67.00;;;;;;5041612;28;1167;-69
2023/03/25 02:33:52;;;;;;;;;;;17.40;67.00;;;;;;5039748;28;1256;-69
2023/03/25 02:36:21;;;;;;;;;;;17.40;67.00;;;;;;5038286;28;955;-69
2023/03/25 02:38:50;;;;;;;;;;;17.30;66.90;;;;;;5040330;28;1442;-69
2023/03/25 02:41:19;;;;;;;;;;;17.40;67.00;;;;;;5025277;28;1345;-69
2023/03/25 02:43:44;;;;;;;;;;;17.40;67.00;;;;;;5071532;28;1959;-69
2023/03/25 02:46:11;;;;;;;;;;;17.40;67.00;;;;;;5036230;28;844;-69
2023/03/25 02:48:39;;;;;;;;;;;17.40;67.00;;;;;;5076083;28;1277;-71
2023/03/25 02:51:07;;;;;;;;;;;17.40;67.00;;;;;;5040638;28;839;-71
2023/03/25 02:53:32;;;;;;;;;;;17.30;66.90;;;;;;5074831;28;1258;-71
2023/03/25 02:55:59;;;;;;;;;;;17.30;66.90;;;;;;5057055;28;1314;-69
2023/03/25 02:58:26;;;;;;;;;;;17.30;66.90;;;;;;5047892;28;900;-70
2023/03/25 03:00:52;;;;;;;;;;;17.30;66.90;;;;;;5035678;28;901;-69
2023/03/25 03:03:17;;;;;;;;;;;17.30;67.00;;;;;;5072763;28;1938;-70
2023/03/25 03:05:43;;;;;;;;;;;17.30;67.00;;;;;;5041731;28;934;-70
2023/03/25 03:08:09;;;;;;;;;;;17.30;67.00;;;;;;5042903;28;891;-70
2023/03/25 03:10:47;;;;;;;;;;;17.30;67.00;;;;;;5041330;28;816;-70
2023/03/25 03:13:16;;;;;;;;;;;17.40;67.00;;;;;;5039497;28;1269;-70
2023/03/25 03:16:04;;;;;;;;;;;17.30;67.00;;;;;;5042059;28;926;-71
2023/03/25 03:18:37;;;;;;;;;;;17.30;67.00;;;;;;5042801;28;868;-70
2023/03/25 03:21:15;;;;;;;;;;;17.30;67.10;;;;;;5035701;28;1392;-71
2023/03/25 03:23:40;;;;;;;;;;;17.40;67.10;;;;;;5042366;28;1910;-72
2023/03/25 03:26:10;;;;;;;;;;;17.40;67.00;;;;;;5041598;28;1339;-71
2023/03/25 03:28:51;;;;;;;;;;;17.40;67.10;;;;;;5047289;28;1236;-70
2023/03/25 03:31:28;;;;;;;;;;;17.30;67.00;;;;;;5072090;28;1417;-70
2023/03/25 03:33:56;;;;;;;;;;;17.30;67.00;;;;;;5039151;28;1345;-71
2023/03/25 03:36:26;;;;;;;;;;;17.30;67.00;;;;;;5036771;28;1339;-70
2023/03/25 03:39:00;;;;;;;;;;;17.30;67.10;;;;;;5076147;28;1369;-73
2023/03/25 03:41:25;;;;;;;;;;;17.30;67.10;;;;;;5037802;28;797;-73
2023/03/25 03:44:05;;;;;;;;;;;17.30;67.10;;;;;;5047124;28;1993;-70
2023/03/25 03:46:32;;;;;;;;;;;17.30;67.10;;;;;;5070146;28;911;-69
2023/03/25 03:48:57;;;;;;;;;;;17.30;67.10;;;;;;5037033;28;1316;-69
2023/03/25 03:51:28;;;;;;;;;;;17.30;67.10;;;;;;5071574;28;912;-70
2023/03/25 03:53:57;;;;;;;;;;;17.30;67.10;;;;;;5040420;28;1299;-70
2023/03/25 03:56:37;;;;;;;;;;;17.30;67.10;;;;;;5038378;28;899;-70
2023/03/25 03:59:05;;;;;;;;;;;17.30;67.20;;;;;;5037760;28;896;-69
2023/03/25 04:01:34;;;;;;;;;;;17.30;67.10;;;;;;5045255;28;804;-69
2023/03/25 04:04:01;;;;;;;;;;;17.30;67.10;;;;;;5034416;28;1899;-69
2023/03/25 04:06:45;;;;;;;;;;;17.30;67.10;;;;;;5070165;28;984;-69
2023/03/25 04:09:42;;;;;;;;;;;17.30;67.10;;;;;;5040538;28;876;-69
2023/03/25 04:12:13;;;;;;;;;;;17.30;67.10;;;;;;5030907;28;1201;-69
2023/03/25 04:14:38;;;;;;;;;;;17.30;67.10;;;;;;5037239;28;1330;-69
2023/03/25 04:17:04;;;;;;;;;;;17.30;67.20;;;;;;5037880;28;878;-69
2023/03/25 04:19:32;;;;;;;;;;;17.30;67.20;;;;;;5071357;28;1065;-69
2023/03/25 04:21:58;;;;;;;;;;;17.30;67.10;;;;;;5036999;28;825;-69
2023/03/25 04:24:25;;;;;;;;;;;17.30;67.10;;;;;;5038501;28;1906;-69
2023/03/25 04:26:51;;;;;;;;;;;17.30;67.20;;;;;;5042678;28;1025;-69
2023/03/25 04:29:17;;;;;;;;;;;17.30;67.10;;;;;;5043914;28;1239;-69
2023/03/25 04:31:48;;;;;;;;;;;17.30;67.20;;;;;;5038808;28;851;-69
2023/03/25 04:34:14;;;;;;;;;;;17.30;67.20;;;;;;5037938;28;1325;-69
2023/03/25 04:36:41;;;;;;;;;;;17.30;67.20;;;;;;5071198;28;1065;-69
2023/03/25 04:39:08;;;;;;;;;;;17.30;67.20;;;;;;5074409;28;784;-70
2023/03/25 04:41:33;;;;;;;;;;;17.30;67.20;;;;;;5044060;28;907;-70
2023/03/25 04:43:59;;;;;;;;;;;17.30;67.20;;;;;;5043955;28;1888;-69
2023/03/25 04:46:24;;;;;;;;;;;17.30;67.20;;;;;;5041845;28;1018;-69
2023/03/25 04:48:52;;;;;;;;;;;17.30;67.20;;;;;;5040971;28;840;-69
2023/03/25 04:51:18;;;;;;;;;;;17.30;67.20;;;;;;5050988;28;864;-69
2023/03/25 04:53:43;;;;;;;;;;;17.30;67.20;;;;;;5041624;28;1343;-69
2023/03/25 04:56:11;;;;;;;;;;;17.30;67.20;;;;;;5046061;28;837;-69
2023/03/25 04:58:37;;;;;;;;;;;17.30;67.20;;;;;;5073265;28;887;-69
2023/03/25 05:01:05;;;;;;;;;;;17.30;67.20;;;;;;5040368;28;951;-69
2023/03/25 05:03:30;;;;;;;;;;;17.30;67.20;;;;;;5042258;28;1961;-69
2023/03/25 05:05:56;;;;;;;;;;;17.30;67.20;;;;;;5039037;28;927;-69
2023/03/25 05:08:21;;;;;;;;;;;17.30;67.20;;;;;;5038781;28;819;-69
2023/03/25 05:10:47;;;;;;;;;;;17.30;67.20;;;;;;5038648;28;969;-69
2023/03/25 05:13:14;;;;;;;;;;;17.30;67.10;;;;;;5035963;28;1380;-69
2023/03/25 05:15:39;;;;;;;;;;;17.40;67.00;;;;;;5042702;28;831;-69
2023/03/25 05:18:08;;;;;;;;;;;17.40;67.00;;;;;;5041260;28;1982;-69
2023/03/25 05:20:36;;;;;;;;;;;17.40;67.00;;;;;;5040353;28;1027;-69
2023/03/25 05:23:03;;;;;;;;;;;17.40;66.80;;;;;;5045739;28;1973;-69
2023/03/25 05:25:32;;;;;;;;;;;17.50;66.80;;;;;;5044545;28;1255;-69
2023/03/25 05:27:58;;;;;;;;;;;17.50;66.60;;;;;;5038489;28;1516;-69
2023/03/25 05:30:31;;;;;;;;;;;17.60;66.60;;;;;;5040156;28;1167;-69
2023/03/25 05:32:58;;;;;;;;;;;17.60;66.40;;;;;;5039489;28;926;-69
2023/03/25 05:35:25;;;;;;;;;;;17.60;66.30;;;;;;5040051;28;1374;-69
2023/03/25 05:37:51;;;;;;;;;;;17.60;66.20;;;;;;5043979;28;1466;-69
2023/03/25 05:40:17;;;;;;;;;;;17.60;66.10;;;;;;5039114;28;749;-69
2023/03/25 05:42:47;;;;;;;;;;;17.70;66.10;;;;;;5041130;28;1961;-69
2023/03/25 05:45:14;;;;;;;;;;;17.70;66.00;;;;;;5041386;28;1261;-69
2023/03/25 05:47:40;;;;;;;;;;;17.70;65.90;;;;;;5049404;28;872;-71
2023/03/25 05:50:07;;;;;;;;;;;17.70;65.80;;;;;;5040491;28;1969;-68
2023/03/25 05:52:32;;;;;;;;;;;17.70;65.80;;;;;;5042321;28;2093;-70
2023/03/25 05:54:58;;;;;;;;;;;17.70;65.70;;;;;;5040152;28;1448;-71
2023/03/25 05:57:23;;;;;;;;;;;17.70;65.70;;;;;;5039578;28;1396;-71
2023/03/25 05:59:48;;;;;;;;;;;17.70;65.60;;;;;;5042078;28;763;-68
2023/03/25 06:02:14;;;;;;;;;;;17.80;65.60;;;;;;5069568;28;1894;-68
2023/03/25 06:04:41;;;;;;;;;;;17.80;65.60;;;;;;5073256;28;1321;-70
2023/03/25 06:07:18;;;;;;;;;;;17.80;65.60;;;;;;5072775;28;859;-69
2023/03/25 06:09:53;;;;;;;;;;;17.80;65.50;;;;;;5049574;28;856;-69
2023/03/25 06:12:19;;;;;;;;;;;17.80;65.50;;;;;;5038792;28;824;-69
2023/03/25 06:14:52;;;;;;;;;;;17.80;65.40;;;;;;5034472;28;1269;-69
2023/03/25 06:17:18;;;;;;;;;;;17.80;65.40;;;;;;5040930;28;911;-69
2023/03/25 06:19:43;;;;;;;;;;;17.80;65.30;;;;;;5069920;28;844;-69
2023/03/25 06:22:09;;;;;;;;;;;17.90;65.30;;;;;;5037353;28;1914;-68
2023/03/25 06:24:36;;;;;;;;;;;17.80;65.20;;;;;;5039574;28;1253;-68
2023/03/25 06:27:01;;;;;;;;;;;17.90;65.30;;;;;;5037623;28;828;-68
2023/03/25 06:29:27;;;;;;;;;;;17.90;65.20;;;;;;5039041;28;834;-67
2023/03/25 06:31:52;;;;;;;;;;;17.90;65.20;;;;;;5045516;28;923;-68
2023/03/25 06:34:18;;;;;;;;;;;17.90;65.20;;;;;;5042071;28;1268;-68
2023/03/25 06:36:43;;;;;;;;;;;17.90;65.90;;;;;;5072600;28;1386;-69
2023/03/25 06:39:09;;;;;;;;;;;17.90;65.10;;;;;;5043997;28;1341;-70
2023/03/25 06:41:35;;;;;;;;;;;17.90;65.10;;;;;;5042329;28;861;-70
2023/03/25 06:44:00;;;;;;;;;;;17.90;65.10;;;;;;5039181;28;1906;-71
2023/03/25 06:46:26;;;;;;;;;;;17.90;65.10;;;;;;5037550;28;812;-70
2023/03/25 06:48:51;;;;;;;;;;;17.90;65.10;;;;;;5040014;28;883;-69
2023/03/25 06:51:17;;;;;;;;;;;17.90;65.00;;;;;;5041013;28;1270;-70
2023/03/25 06:53:42;;;;;;;;;;;17.90;65.10;;;;;;5047415;28;1369;-69
2023/03/25 06:56:08;;;;;;;;;;;17.90;65.10;;;;;;5044285;28;832;-71
2023/03/25 06:58:33;;;;;;;;;;;17.90;65.10;;;;;;5039907;28;785;-69
2023/03/25 07:01:02;;;;;;;;;;;17.90;65.10;;;;;;5038886;28;940;-69
2023/03/25 07:03:28;;;;;;;;;;;17.90;65.10;;;;;;5039697;28;1890;-69
2023/03/25 07:05:54;;;;;;;;;;;17.90;65.10;;;;;;5039051;28;832;-70
2023/03/25 07:08:19;;;;;;;;;;;17.90;65.90;;;;;;5073054;28;1236;-69
2023/03/25 07:10:45;;;;;;;;;;;17.90;65.20;;;;;;5039860;28;856;-70
2023/03/25 07:13:10;;;;;;;;;;;17.90;65.20;;;;;;5043314;28;1058;-69
2023/03/25 07:15:36;;;;;;;;;;;17.90;65.20;;;;;;5038298;28;1292;-70
2023/03/25 07:18:01;;;;;;;;;;;17.90;65.30;;;;;;5036956;28;1034;-70
2023/03/25 07:20:27;;;;;;;;;;;17.90;65.30;;;;;;5037712;28;851;-70
2023/03/25 07:22:52;;;;;;;;;;;17.90;65.30;;;;;;5040453;28;1906;-70
2023/03/25 07:25:18;;;;;;;;;;;17.90;65.30;;;;;;5038486;28;1285;-70
2023/03/25 07:27:43;;;;;;;;;;;17.80;65.30;;;;;;5039516;28;843;-70
2023/03/25 07:30:09;;;;;;;;;;;17.90;65.30;;;;;;5041089;28;885;-68
2023/03/25 07:32:35;;;;;;;;;;;17.80;65.30;;;;;;5031616;28;4255;-68
2023/03/25 07:35:00;;;;;;;;;;;17.80;65.40;;;;;;5038112;28;1276;-68
2023/03/25 07:37:25;;;;;;;;;;;17.80;65.30;;;;;;5039704;28;1402;-68
2023/03/25 07:39:51;;;;;;;;;;;17.90;65.40;;;;;;5037308;28;856;-71
2023/03/25 07:42:16;;;;;;;;;;;17.90;65.50;;;;;;5051165;28;1971;-71
2023/03/25 07:44:42;;;;;;;;;;;17.90;65.50;;;;;;5035883;28;1298;-71
2023/03/25 07:47:07;;;;;;;;;;;17.80;65.40;;;;;;5071903;28;884;-71
2023/03/25 07:49:33;;;;;;;;;;;17.80;65.40;;;;;;5043437;28;1313;-71
2023/03/25 07:51:59;;;;;;;;;;;17.80;65.40;;;;;;5036718;28;820;-71
2023/03/25 07:54:24;;;;;;;;;;;17.80;65.40;;;;;;5070558;28;1278;-71
2023/03/25 07:56:53;;;;;;;;;;;17.80;65.50;;;;;;5038258;28;793;-69
2023/03/25 07:59:19;;;;;;;;;;;17.80;65.50;;;;;;5039402;28;919;-69
2023/03/25 08:01:44;;;;;;;;;;;17.80;65.50;;;;;;5037630;28;866;-70
2023/03/25 08:04:12;;;;;;;;;;;17.80;65.50;;;;;;5038558;28;2102;-70
2023/03/25 08:06:38;;;;;;;;;;;17.80;65.50;;;;;;5038644;28;1366;-70
2023/03/25 08:09:03;;;;;;;;;;;17.80;65.50;;;;;;5036035;28;1457;-70
2023/03/25 08:11:29;;;;;;;;;;;17.80;65.50;;;;;;5039528;28;1644;-70
2023/03/25 08:13:54;;;;;;;;;;;17.80;65.50;;;;;;5036472;28;2704;-70
2023/03/25 08:16:20;;;;;;;;;;;17.80;65.50;;;;;;5036735;28;847;-70
2023/03/25 08:18:45;;;;;;;;;;;17.80;65.50;;;;;;5070348;28;944;-70
2023/03/25 08:21:11;;;;;;;;;;;17.80;65.50;;;;;;5039030;28;1094;-70
2023/03/25 08:23:37;;;;;;;;;;;17.80;65.50;;;;;;5072787;28;1967;-70
2023/03/25 08:26:04;;;;;;;;;;;17.80;65.60;;;;;;5027383;28;1272;-70
2023/03/25 08:28:29;;;;;;;;;;;17.80;65.60;;;;;;5069360;28;863;-70
2023/03/25 08:30:55;;;;;;;;;;;17.80;65.60;;;;;;5069623;28;880;-70
2023/03/25 08:33:21;;;;;;;;;;;17.80;65.60;;;;;;5037499;28;1367;-70
2023/03/25 08:35:46;;;;;;;;;;;17.80;65.60;;;;;;5035861;28;855;-70
2023/03/25 08:38:12;;;;;;;;;;;17.80;65.70;;;;;;5036417;28;1398;-70
2023/03/25 08:40:37;;;;;;;;;;;17.80;65.70;;;;;;5035834;28;841;-70
2023/03/25 08:43:03;;;;;;;;;;;17.70;65.70;;;;;;5038278;28;1934;-70
2023/03/25 08:45:30;;;;;;;;;;;17.80;65.70;;;;;;5040150;28;1283;-70
2023/03/25 08:47:56;;;;;;;;;;;17.80;65.70;;;;;;5071775;28;835;-70
2023/03/25 08:50:21;;;;;;;;;;;17.80;65.70;;;;;;5038906;28;840;-70
2023/03/25 08:52:47;;;;;;;;;;;17.80;65.70;;;;;;5035279;28;962;-70
2023/03/25 08:55:14;;;;;;;;;;;17.80;65.80;;;;;;5070459;28;1305;-70
2023/03/25 08:57:41;;;;;;;;;;;17.80;65.80;;;;;;5034573;28;871;-70
2023/03/25 09:00:12;;;;;;;;;;;17.70;65.70;;;;;;5040264;28;1193;-70
2023/03/25 09:02:38;;;;;;;;;;;17.70;65.80;;;;;;5038006;28;1961;-70
2023/03/25 09:05:04;;;;;;;;;;;17.80;65.80;;;;;;5038413;28;1357;-70
2023/03/25 09:07:30;;;;;;;;;;;17.70;65.90;;;;;;5036185;28;948;-70
2023/03/25 09:09:55;;;;;;;;;;;17.70;65.80;;;;;;5042274;28;1274;-70
2023/03/25 09:12:20;;;;;;;;;;;17.70;65.90;;;;;;5039072;28;813;-70
2023/03/25 09:14:46;;;;;;;;;;;17.70;65.80;;;;;;5029493;28;1369;-70
2023/03/25 09:17:11;;;;;;;;;;;17.70;65.90;;;;;;5073619;28;828;-70
2023/03/25 09:19:37;;;;;;;;;;;17.70;65.90;;;;;;5037889;28;789;-70
2023/03/25 09:22:03;;;;;;;;;;;17.70;66.00;;;;;;5036408;28;943;-70
2023/03/25 09:24:28;;;;;;;;;;;17.70;65.90;;;;;;5040035;28;1910;-70
2023/03/25 09:26:54;;;;;;;;;;;17.70;66.00;;;;;;5040458;28;832;-70
2023/03/25 09:29:19;;;;;;;;;;;17.70;66.00;;;;;;5072788;28;899;-70
2023/03/25 09:31:44;;;;;;;;;;;17.70;66.00;;;;;;5040813;28;840;-70
2023/03/25 09:34:10;;;;;;;;;;;17.70;66.00;;;;;;5041030;28;1354;-70
2023/03/25 09:36:37;;;;;;;;;;;17.70;66.00;;;;;;5071755;28;1120;-70
2023/03/25 09:39:03;;;;;;;;;;;17.70;66.00;;;;;;5042836;28;859;-71
2023/03/25 09:41:40;;;;;;;;;;;17.70;66.10;;;;;;5027072;28;5370;-70
2023/03/25 09:44:09;;;;;;;;;;;17.70;66.10;;;;;;5024216;28;4572;-70
2023/03/25 09:46:35;;;;;;;;;;;17.70;66.10;;;;;;5028397;28;4575;-70
2023/03/25 09:49:01;;;;;;;;;;;17.70;66.10;;;;;;5037481;28;4113;-70
2023/03/25 09:51:31;;;;;;;;;;;17.70;66.20;;;;;;5045089;28;1420;-70
2023/03/25 09:54:02;;;;;;;;;;;17.70;66.10;;;;;;5037614;28;4862;-70
2023/03/25 09:56:29;;;;;;;;;;;17.70;66.20;;;;;;5028952;28;4245;-70
2023/03/25 09:59:13;;;;;;;;;;;17.70;66.20;;;;;;5040824;28;2826;-70
2023/03/25 10:01:45;;;;;;;;;;;17.70;66.20;;;;;;5040908;28;785;-70
2023/03/25 10:04:19;;;;;;;;;;;17.60;66.20;;;;;;5032312;28;4119;-70
2023/03/25 10:06:47;;;;;;;;;;;17.60;66.20;;;;;;5038649;28;4108;-70
2023/03/25 10:09:16;;;;;;;;;;;17.60;66.20;;;;;;5036479;28;871;-70
2023/03/25 10:11:41;;;;;;;;;;;17.70;66.50;;;;;;5024161;28;4739;-70
2023/03/25 10:14:10;;;;;;;;;;;17.70;66.50;;;;;;5038404;28;3975;-70
2023/03/25 10:16:39;;;;;;;;;;;17.70;66.30;;;;;;5039035;28;1183;-70
2023/03/25 10:19:20;;;;;;;;;;;17.70;66.10;;;;;;5073911;28;871;-70
2023/03/25 10:21:54;;;;;;;;;;;17.80;66.20;;;;;;5043290;28;821;-70
2023/03/25 10:24:21;;;;;;;;;;;17.80;66.20;;;;;;5040780;28;1918;-70
2023/03/25 10:26:55;;;;;;;;;;;17.70;66.20;;;;;;5038463;28;872;-70
2023/03/25 10:29:21;;;;;;;;;;;17.70;66.20;;;;;;5026193;28;4520;-70
2023/03/25 10:31:51;;;;;;;;;;;17.70;66.30;;;;;;5041773;28;4666;-70
2023/03/25 10:34:17;;;;;;;;;;;17.70;66.30;;;;;;5024844;28;1363;-70
2023/03/25 10:36:48;;;;;;;;;;;17.70;66.30;;;;;;5043762;28;1437;-70
2023/03/25 10:39:20;;;;;;;;;;;17.70;66.30;;;;;;5039933;28;4043;-70
2023/03/25 10:41:47;;;;;;;;;;;17.70;66.40;;;;;;5047136;28;939;-70
2023/03/25 10:44:12;;;;;;;;;;;17.70;66.40;;;;;;5056063;28;1926;-70
2023/03/25 10:46:46;;;;;;;;;;;17.70;66.40;;;;;;5071040;28;819;-70
2023/03/25 10:49:12;;;;;;;;;;;17.70;66.40;;;;;;5038820;28;911;-70
2023/03/25 10:51:38;;;;;;;;;;;17.70;66.40;;;;;;5072037;28;829;-70
2023/03/25 10:54:03;;;;;;;;;;;17.60;66.40;;;;;;5041926;28;1249;-70
2023/03/25 10:56:30;;;;;;;;;;;17.60;66.40;;;;;;5041526;28;808;-70
2023/03/25 10:58:56;;;;;;;;;;;17.60;66.50;;;;;;5070734;28;801;-70
2023/03/25 11:01:35;;;;;;;;;;;17.60;66.50;;;;;;5037780;28;851;-70
2023/03/25 11:04:00;;;;;;;;;;;17.60;66.50;;;;;;5070747;28;1960;-70
2023/03/25 11:06:29;;;;;;;;;;;17.60;66.50;;;;;;5068418;28;870;-70
2023/03/25 11:09:16;;;;;;;;;;;17.60;66.50;;;;;;5057462;28;1270;-70
2023/03/25 11:11:42;;;;;;;;;;;17.60;66.60;;;;;;5040959;28;821;-70
2023/03/25 11:14:08;;;;;;;;;;;17.60;67.30;;;;;;5040598;28;1639;-70
2023/03/25 11:16:47;;;;;;;;;;;17.60;66.60;;;;;;5071051;28;908;-70
2023/03/25 11:19:23;;;;;;;;;;;17.60;66.60;;;;;;5037085;28;865;-70
2023/03/25 11:21:51;;;;;;;;;;;17.60;66.60;;;;;;5046961;28;1441;-70
2023/03/25 11:24:17;;;;;;;;;;;17.60;66.60;;;;;;5055973;28;1906;-70
2023/03/25 11:26:42;;;;;;;;;;;17.60;66.60;;;;;;5035423;28;957;-70
2023/03/25 11:29:10;;;;;;;;;;;17.60;66.60;;;;;;5068874;28;1336;-70
2023/03/25 11:31:36;;;;;;;;;;;17.60;66.70;;;;;;5071275;28;1336;-70
2023/03/25 11:34:11;;;;;;;;;;;17.60;66.70;;;;;;5037571;28;1318;-70
2023/03/25 11:36:38;;;;;;;;;;;17.60;66.70;;;;;;5038499;28;1159;-70
2023/03/25 11:39:15;;;;;;;;;;;17.60;66.70;;;;;;5039693;28;852;-70
2023/03/25 11:41:41;;;;;;;;;;;17.60;66.70;;;;;;5055947;28;1384;-70
2023/03/25 11:44:07;;;;;;;;;;;17.60;66.70;;;;;;5038583;28;1977;-70
2023/03/25 11:46:33;;;;;;;;;;;17.60;66.80;;;;;;5038075;28;994;-70
2023/03/25 11:49:11;;;;;;;;;;;17.60;66.70;;;;;;5039858;28;828;-70
2023/03/25 11:51:36;;;;;;;;;;;17.60;66.80;;;;;;5039388;28;1057;-70
2023/03/25 11:54:04;;;;;;;;;;;17.60;66.80;;;;;;5040043;28;1255;-70
2023/03/25 11:56:34;;;;;;;;;;;17.50;66.70;;;;;;5047226;28;847;-70
2023/03/25 11:59:00;;;;;;;;;;;17.50;66.70;;;;;;5037515;28;1279;-70
2023/03/25 12:01:45;;;;;;;;;;;17.50;66.70;;;;;;5070619;28;899;-70
2023/03/25 12:04:12;;;;;;;;;;;17.50;66.70;;;;;;5067381;28;1901;-70
2023/03/25 12:06:50;;;;;;;;;;;17.60;66.80;;;;;;5037418;28;1493;-70
2023/03/25 12:09:16;;;;;;;;;;;17.50;66.70;;;;;;5037980;28;848;-70
2023/03/25 12:11:57;;;;;;;;;;;17.60;66.80;;;;;;5037611;28;1021;-70
2023/03/25 12:14:28;;;;;;;;;;;17.50;66.80;;;;;;5036885;28;1284;-70
2023/03/25 12:17:00;;;;;;;;;;;17.50;66.80;;;;;;5036471;28;1265;-70
2023/03/25 12:19:44;;;;;;;;;;;17.50;66.80;;;;;;5053580;28;2253;-70
2023/03/25 12:22:12;;;;;;;;;;;17.50;66.80;;;;;;5041535;28;1423;-70
2023/03/25 12:24:41;;;;;;;;;;;17.50;66.80;;;;;;5044493;28;1917;-70
2023/03/25 12:27:13;;;;;;;;;;;17.50;66.90;;;;;;5038934;28;832;-70
2023/03/25 12:29:51;;;;;;;;;;;17.50;66.80;;;;;;5025326;28;1195;-71
2023/03/25 12:32:29;;;;;;;;;;;17.50;66.80;;;;;;5039776;28;1139;-70
2023/03/25 12:35:01;;;;;;;;;;;17.50;66.90;;;;;;5034586;28;1444;-70
2023/03/25 12:37:32;;;;;;;;;;;17.50;66.90;;;;;;5069584;28;1005;-70
2023/03/25 12:40:19;;;;;;;;;;;17.50;66.90;;;;;;5045951;28;1234;-70
2023/03/25 12:43:00;;;;;;;;;;;17.50;66.90;;;;;;5040123;28;1971;-70
2023/03/25 12:45:28;;;;;;;;;;;17.50;66.90;;;;;;5037291;28;1358;-71
2023/03/25 12:47:53;;;;;;;;;;;17.50;66.90;;;;;;5037659;28;899;-70
2023/03/25 12:50:30;;;;;;;;;;;17.50;66.90;;;;;;5041982;28;1435;-70
2023/03/25 12:53:04;;;;;;;;;;;17.50;66.90;;;;;;5036856;28;973;-70
2023/03/25 12:55:35;;;;;;;;;;;17.50;66.90;;;;;;5036413;28;2493;-70
2023/03/25 12:58:16;;;;;;;;;;;17.50;66.90;;;;;;5040683;28;1919;-70
2023/03/25 13:00:45;;;;;;;;;;;17.50;67.00;;;;;;5046116;28;1497;-70
2023/03/25 13:03:21;;;;;;;;;;;17.50;66.90;;;;;;5078011;28;1961;-70
2023/03/25 13:06:05;;;;;;;;;;;17.50;67.00;;;;;;5039706;28;1033;-70
2023/03/25 13:08:35;;;;;;;;;;;17.50;67.00;;;;;;5040670;28;863;-70
2023/03/25 13:11:02;;;;;;;;;;;17.50;67.00;;;;;;5049526;28;1031;-70
2023/03/25 13:13:28;;;;;;;;;;;17.50;67.00;;;;;;5073916;28;1362;-70
2023/03/25 13:16:15;;;;;;;;;;;17.50;67.00;;;;;;5038664;28;821;-70
2023/03/25 13:18:41;;;;;;;;;;;17.50;67.00;;;;;;5039384;28;1126;-70
2023/03/25 13:21:12;;;;;;;;;;;17.50;67.00;;;;;;5076255;28;1030;-70
2023/03/25 13:23:38;;;;;;;;;;;17.50;67.00;;;;;;5074245;28;1981;-70
2023/03/25 13:26:10;;;;;;;;;;;17.50;67.00;;;;;;5042006;28;859;-70
2023/03/25 13:28:37;;;;;;;;;;;17.50;67.00;;;;;;5073741;28;923;-70
2023/03/25 13:31:07;;;;;;;;;;;17.50;67.10;;;;;;5043901;28;915;-71
2023/03/25 13:33:34;;;;;;;;;;;17.50;67.00;;;;;;5071348;28;1331;-71
2023/03/25 13:36:04;;;;;;;;;;;17.50;67.10;;;;;;5070661;28;893;-71
2023/03/25 13:38:31;;;;;;;;;;;17.50;67.00;;;;;;5050887;28;1392;-71
2023/03/25 13:41:00;;;;;;;;;;;17.50;67.10;;;;;;5071578;28;888;-71
2023/03/25 13:43:31;;;;;;;;;;;17.50;67.10;;;;;;5043036;28;1926;-71
2023/03/25 13:46:16;;;;;;;;;;;17.50;67.10;;;;;;5049992;28;1012;-71
2023/03/25 13:48:53;;;;;;;;;;;17.50;67.00;;;;;;5073918;28;820;-71
2023/03/25 13:51:18;;;;;;;;;;;17.50;67.10;;;;;;5066723;28;1284;-71
2023/03/25 13:53:47;;;;;;;;;;;17.50;67.10;;;;;;5040297;28;1288;-71
2023/03/25 13:56:20;;;;;;;;;;;17.50;67.10;;;;;;5039026;28;1835;-71
2023/03/25 13:58:46;;;;;;;;;;;17.50;67.10;;;;;;5074973;28;2094;-71
2023/03/25 14:01:16;;;;;;;;;;;17.50;67.10;;;;;;5044215;28;1339;-71
2023/03/25 14:03:45;;;;;;;;;;;17.50;67.10;;;;;;5040917;28;2304;-71
2023/03/25 14:06:10;;;;;;;;;;;17.40;67.00;;;;;;5040481;28;2086;-73
2023/03/25 14:08:55;;;;;;;;;;;17.50;67.10;;;;;;5033878;28;4026;-71
2023/03/25 14:11:20;;;;;;;;;;;17.40;67.00;;;;;;5041998;28;1488;-70
2023/03/25 14:13:54;;;;;;;;;;;17.40;67.00;;;;;;5042745;28;1373;-70
2023/03/25 14:16:24;;;;;;;;;;;17.40;67.00;;;;;;5072454;28;1862;-72
2023/03/25 14:18:50;;;;;;;;;;;17.50;67.10;;;;;;5040883;28;1437;-71
2023/03/25 14:21:26;;;;;;;;;;;17.50;67.10;;;;;;5042772;28;1196;-71
2023/03/25 14:24:01;;;;;;;;;;;17.40;67.00;;;;;;5040642;28;1967;-70
2023/03/25 14:26:26;;;;;;;;;;;17.40;67.00;;;;;;5037573;28;848;-69
2023/03/25 14:28:52;;;;;;;;;;;17.40;67.00;;;;;;5036856;28;911;-70
2023/03/25 14:31:21;;;;;;;;;;;17.40;67.00;;;;;;5038457;28;1177;-69
2023/03/25 14:33:58;;;;;;;;;;;17.40;67.00;;;;;;5046783;28;1215;-69
2023/03/25 14:36:36;;;;;;;;;;;17.40;67.10;;;;;;5039688;28;1544;-69
2023/03/25 14:39:02;;;;;;;;;;;17.40;67.00;;;;;;5040165;28;1026;-71
2023/03/25 14:41:47;;;;;;;;;;;17.40;67.10;;;;;;5037445;28;860;-70
2023/03/25 14:44:18;;;;;;;;;;;17.40;67.00;;;;;;5040846;28;1902;-69